Latest Weather Observations for Little Bay

IDN60901

Issued at 9:01 pm EST Sunday 16 June 2019 (issued every 10 minutes, with the page automatically refreshed every 10 minutes)

About weather observations | Map of Sydney area stations | Latest observations for Sydney area | Other Formats
Station Details ID: 066051 Name: LITTLE BAY (THE COAST GOLF CLUB) Lat: -33.98 Lon: 151.25 Height: 22.0 m
Data from the previous 72 hours. | See also: Recent months at Little Bay
Date/Time
EST
Temp
°C
App
Temp
°C
Dew
Point
°C
Rel
Hum
%
Delta-T
°C
Wind Press
QNH
hPa
Press
MSL
hPa
Rain since
9am
mm
Dir  Spd
km/h
Gust
km/h
Spd
kts
Gust
kts
16/09:00pm - - - - - SSW 22 32 12 17 - - -
16/08:30pm - - - - - SSW 20 33 11 18 - - -
16/08:00pm - - - - - W 7 24 4 13 - - -
16/07:30pm - - - - - NW 6 19 3 10 - - -
16/07:00pm - - - - - SE 11 15 6 8 - - -
16/06:30pm - - - - - SE 15 20 8 11 - - -
16/06:00pm - - - - - SSE 17 24 9 13 - - -
16/05:30pm - - - - - SE 20 26 11 14 - - -
16/05:00pm - - - - - SSE 19 28 10 15 - - -
16/04:30pm - - - - - SSE 20 28 11 15 - - -
16/04:00pm - - - - - SSE 19 24 10 13 - - -
16/03:30pm - - - - - SSE 20 26 11 14 - - -
16/03:00pm - - - - - SE 20 28 11 15 - - -
16/02:30pm - - - - - SE 17 22 9 12 - - -
16/02:00pm - - - - - SSE 22 28 12 15 - - -
16/01:30pm - - - - - S 20 28 11 15 - - -
16/01:00pm - - - - - S 17 20 9 11 - - -
16/12:30pm - - - - - SSE 7 13 4 7 - - -
16/12:00pm - - - - - NE 15 26 8 14 - - -
16/11:30am - - - - - ESE 24 30 13 16 - - -
16/11:00am - - - - - ESE 26 32 14 17 - - -
16/10:30am - - - - - SSE 22 33 12 18 - - -
16/10:00am - - - - - SSE 28 35 15 19 - - -
16/09:30am - - - - - SE 28 37 15 20 - - -
16/09:00am - - - - - SE 33 39 18 21 - - -
16/08:53am - - - - - SSE 19 35 10 19 - - -
16/08:30am - - - - - S 9 13 5 7 - - -
16/08:00am - - - - - SE 7 11 4 6 - - -
16/07:30am - - - - - E 15 19 8 10 - - -
16/07:00am - - - - - SW 9 15 5 8 - - -
16/06:30am - - - - - SW 7 15 4 8 - - -
16/06:00am - - - - - SSW 11 17 6 9 - - -
16/05:30am - - - - - SSW 9 19 5 10 - - -
16/05:00am - - - - - SSW 13 22 7 12 - - -
16/04:30am - - - - - SW 6 22 3 12 - - -
16/04:00am - - - - - WNW 9 15 5 8 - - -
16/03:30am - - - - - NW 7 13 4 7 - - -
16/03:00am - - - - - WNW 13 17 7 9 - - -
16/02:30am - - - - - WNW 13 19 7 10 - - -
16/02:00am - - - - - W 6 9 3 5 - - -
16/01:30am - - - - - NNW 4 6 2 3 - - -
16/01:00am - - - - - SSW 4 9 2 5 - - -
16/12:30am - - - - - WSW 11 17 6 9 - - -
16/12:00am - - - - - SW 11 19 6 10 - - -
 
Date/Time
EST
Temp
°C
App
Temp
°C
Dew
Point
°C
Rel
Hum
%
Delta-T
°C
Wind Press
QNH
hPa
Press
MSL
hPa
Rain since
9am
mm
Dir  Spd
km/h
Gust
km/h
Spd
kts
Gust
kts
15/11:30pm - - - - - WSW 13 17 7 9 - - -
15/11:00pm - - - - - SW 13 19 7 10 - - -
15/10:30pm - - - - - S 15 22 8 12 - - -
15/10:00pm - - - - - S 19 28 10 15 - - -
15/09:30pm - - - - - S 19 28 10 15 - - -
15/09:00pm - - - - - S 17 22 9 12 - - -
15/08:30pm - - - - - S 26 35 14 19 - - -
15/08:00pm - - - - - S 13 19 7 10 - - -
15/07:30pm - - - - - S 13 17 7 9 - - -
15/07:00pm - - - - - S 19 24 10 13 - - -
15/06:30pm - - - - - WSW 2 7 1 4 - - -
15/06:00pm - - - - - NW 7 13 4 7 - - -
15/05:30pm - - - - - SE 26 32 14 17 - - -
15/05:00pm - - - - - SW 7 13 4 7 - - -
15/04:30pm - - - - - SSW 9 13 5 7 - - -
15/04:00pm - - - - - SSW 13 19 7 10 - - -
15/03:30pm - - - - - SSW 9 15 5 8 - - -
15/03:00pm - - - - - S 11 17 6 9 - - -
15/02:30pm - - - - - S 11 17 6 9 - - -
15/02:00pm - - - - - SSW 7 13 4 7 - - -
15/01:30pm - - - - - SSW 7 13 4 7 - - -
15/01:00pm - - - - - SW 6 9 3 5 - - -
15/12:30pm - - - - - W 7 11 4 6 - - -
15/12:00pm - - - - - W 11 15 6 8 - - -
15/11:30am - - - - - W 9 13 5 7 - - -
15/11:00am - - - - - WNW 9 15 5 8 - - -
15/10:30am - - - - - W 13 17 7 9 - - -
15/10:00am - - - - - W 15 20 8 11 - - -
15/09:30am - - - - - WNW 15 20 8 11 - - -
15/09:00am - - - - - WNW 15 20 8 11 - - -
15/08:30am - - - - - WNW 13 24 7 13 - - -
15/08:00am - - - - - WNW 15 20 8 11 - - -
15/07:30am - - - - - WNW 15 20 8 11 - - -
15/07:00am - - - - - WNW 13 17 7 9 - - -
15/06:30am - - - - - WNW 17 20 9 11 - - -
15/06:00am - - - - - WNW 15 20 8 11 - - -
15/05:30am - - - - - WNW 13 19 7 10 - - -
15/05:00am - - - - - WNW 15 19 8 10 - - -
15/04:30am - - - - - WNW 15 22 8 12 - - -
15/04:00am - - - - - WNW 13 19 7 10 - - -
15/03:30am - - - - - WNW 11 15 6 8 - - -
15/03:00am - - - - - WNW 13 19 7 10 - - -
15/02:30am - - - - - WNW 13 19 7 10 - - -
15/02:00am - - - - - NW 11 19 6 10 - - -
15/01:30am - - - - - W 17 24 9 13 - - -
15/01:00am - - - - - W 17 24 9 13 - - -
15/12:30am - - - - - WNW 15 20 8 11 - - -
15/12:00am - - - - - WNW 9 15 5 8 - - -
 
Date/Time
EST
Temp
°C
App
Temp
°C
Dew
Point
°C
Rel
Hum
%
Delta-T
°C
Wind Press
QNH
hPa
Press
MSL
hPa
Rain since
9am
mm
Dir  Spd
km/h
Gust
km/h
Spd
kts
Gust
kts
14/11:30pm - - - - - WNW 9 17 5 9 - - -
14/11:00pm - - - - - W 9 15 5 8 - - -
14/10:30pm - - - - - W 9 15 5 8 - - -
14/10:00pm - - - - - WNW 7 11 4 6 - - -
14/09:30pm - - - - - WNW 7 11 4 6 - - -
14/09:00pm - - - - - W 7 13 4 7 - - -
14/08:30pm - - - - - W 7 13 4 7 - - -
14/08:00pm - - - - - WSW 9 13 5 7 - - -
14/07:30pm - - - - - W 7 11 4 6 - - -
14/07:00pm - - - - - SW 6 7 3 4 - - -
14/06:30pm - - - - - WSW 9 9 5 5 - - -
14/06:00pm - - - - - WSW 7 9 4 5 - - -
14/05:30pm - - - - - W 4 4 2 2 - - -
14/05:00pm - - - - - W 2 4 1 2 - - -
14/04:30pm - - - - - W 2 4 1 2 - - -
14/04:00pm - - - - - W 6 9 3 5 - - -
14/03:30pm - - - - - W 6 9 3 5 - - -
14/03:00pm - - - - - WSW 9 13 5 7 - - -
14/02:30pm - - - - - W 11 17 6 9 - - -
14/02:00pm - - - - - WNW 7 11 4 6 - - -
14/01:30pm - - - - - WNW 11 17 6 9 - - -
14/01:00pm - - - - - WNW 11 17 6 9 - - -
14/12:30pm - - - - - W 11 19 6 10 - - -
14/12:00pm - - - - - W 13 19 7 10 - - -
14/11:30am - - - - - W 13 19 7 10 - - -
14/11:00am - - - - - WNW 15 22 8 12 - - -
14/10:30am - - - - - W 17 24 9 13 - - -
14/10:00am - - - - - W 17 22 9 12 - - -
14/09:30am - - - - - W 19 26 10 14 - - -
14/09:00am - - - - - WNW 15 24 8 13 - - -
14/08:30am - - - - - WNW 13 19 7 10 - - -
14/08:00am - - - - - WNW 13 20 7 11 - - -
14/07:30am - - - - - WNW 15 20 8 11 - - -
14/07:00am - - - - - W 15 19 8 10 - - -
14/06:30am - - - - - WNW 15 20 8 11 - - -
14/06:00am - - - - - WNW 11 15 6 8 - - -
14/05:30am - - - - - WNW 11 17 6 9 - - -
14/05:00am - - - - - W 11 17 6 9 - - -
14/04:30am - - - - - W 15 19 8 10 - - -
14/04:00am - - - - - W 15 19 8 10 - - -
14/03:30am - - - - - W 15 20 8 11 - - -
14/03:00am - - - - - WSW 17 24 9 13 - - -
14/02:30am - - - - - W 17 28 9 15 - - -
14/02:00am - - - - - W 15 24 8 13 - - -
14/01:30am - - - - - W 17 24 9 13 - - -
14/01:00am - - - - - WSW 19 26 10 14 - - -
14/12:30am - - - - - WSW 15 24 8 13 - - -
14/12:00am - - - - - W 11 19 6 10 - - -
 
Date/Time
EST
Temp
°C
App
Temp
°C
Dew
Point
°C
Rel
Hum
%
Delta-T
°C
Wind Press
QNH
hPa
Press
MSL
hPa
Rain since
9am
mm
Dir  Spd
km/h
Gust
km/h
Spd
kts
Gust
kts
13/11:30pm - - - - - W 11 19 6 10 - - -
13/11:00pm - - - - - WSW 13 22 7 12 - - -
13/10:30pm - - - - - SW 11 19 6 10 - - -
13/10:00pm - - - - - SW 11 19 6 10 - - -
13/09:30pm - - - - - WSW 7 11 4 6 - - -

Latest Capital City Observations: Canberra | Sydney | Melbourne | Brisbane | Adelaide | Perth | Hobart | Darwin

Other formats

Comma delimited format used in spreadsheet applications
http://www.bom.gov.au/fwo/IDN60901/IDN60901.94780.axf

JavaScript Object Notation format (JSON) in row-major order
http://www.bom.gov.au/fwo/IDN60901/IDN60901.94780.json

Data quality

Most of these data are generated automatically and are frequently updated. Quality checks on data are not normally performed. It is possible for incorrect values to appear. Refer to information at About Latest Weather Observations and please check the disclaimer before using these data.